Time;durP1;ratioP1;P1;durP2;ratioP2;P2;SDS_P1;SDS_P2;PMS_P1;PMS_P2;Temp;Humidity;BMP_temperature;BMP_pressure;BME280_temperature;BME280_humidity;BME280_pressure;Samples;Min_cycle;Max_cycle;Signal;HPM_P1;HPM_P2
2022/12/10 00:01:18;;;;;;;20.55;11.25;;;0.90;1.00;;;;;;5013104;28;20038;-86
2022/12/10 00:03:45;;;;;;;22.77;12.93;;;0.90;1.00;;;;;;4994574;28;20050;-87
2022/12/10 00:06:14;;;;;;;22.95;12.85;;;0.90;1.00;;;;;;5012342;28;20471;-86
2022/12/10 00:08:40;;;;;;;22.90;13.05;;;0.90;1.00;;;;;;4993853;28;20088;-89
2022/12/10 00:11:09;;;;;;;23.48;13.15;;;0.90;1.00;;;;;;5011812;28;20046;-87
2022/12/10 00:13:36;;;;;;;23.58;12.05;;;0.90;1.00;;;;;;5010789;28;20061;-87
2022/12/10 00:16:05;;;;;;;24.30;12.93;;;0.80;1.00;;;;;;5011169;28;20337;-88
2022/12/10 00:18:32;;;;;;;21.67;12.38;;;0.80;1.00;;;;;;5013835;28;20034;-92
2022/12/10 00:21:01;;;;;;;25.63;13.45;;;0.80;1.20;;;;;;4995107;28;20045;-89
2022/12/10 00:23:27;;;;;;;29.05;14.82;;;0.80;2.50;;;;;;5011124;28;20034;-87
2022/12/10 00:25:54;;;;;;;30.58;15.13;;;0.80;4.40;;;;;;5011448;28;20041;-92
2022/12/10 00:28:20;;;;;;;26.17;14.50;;;0.80;5.10;;;;;;5012981;28;20034;-92
2022/12/10 00:30:46;;;;;;;27.77;15.55;;;0.70;5.80;;;;;;4994694;28;20030;-87
2022/12/10 00:33:12;;;;;;;27.40;13.80;;;0.70;6.90;;;;;;5028009;28;20026;-86
2022/12/10 00:35:38;;;;;;;28.25;14.93;;;0.70;7.90;;;;;;5019161;28;20038;-88
2022/12/10 00:38:07;;;;;;;29.63;15.40;;;0.70;8.50;;;;;;5012140;28;20033;-87
2022/12/10 00:40:33;;;;;;;28.80;15.45;;;0.70;9.10;;;;;;5012005;28;20038;-87
2022/12/10 00:43:00;;;;;;;27.15;15.75;;;0.70;8.90;;;;;;5011595;28;20034;-88
2022/12/10 00:45:26;;;;;;;27.80;14.35;;;0.70;8.80;;;;;;4995096;28;20033;-89
2022/12/10 00:47:52;;;;;;;31.08;15.80;;;0.70;9.70;;;;;;5011668;28;20026;-85
2022/12/10 00:50:18;;;;;;;30.05;15.70;;;0.70;10.10;;;;;;5012402;28;20435;-87
2022/12/10 00:52:47;;;;;;;32.90;16.48;;;0.70;10.80;;;;;;4994114;28;20046;-90
2022/12/10 00:55:13;;;;;;;33.97;16.77;;;0.70;11.40;;;;;;4993167;28;20046;-89
2022/12/10 00:57:40;;;;;;;31.65;16.60;;;0.70;11.60;;;;;;4994810;28;20053;-87
2022/12/10 01:00:07;;;;;;;30.95;16.20;;;0.60;12.00;;;;;;5012394;28;20030;-88
2022/12/10 01:02:33;;;;;;;30.42;16.13;;;0.70;12.30;;;;;;5012406;28;20054;-86
2022/12/10 01:04:59;;;;;;;30.15;15.30;;;0.60;12.20;;;;;;5016305;28;20038;-89
2022/12/10 01:07:25;;;;;;;30.30;16.23;;;0.60;12.80;;;;;;5017825;28;20086;-86
2022/12/10 01:09:51;;;;;;;35.63;16.95;;;0.60;13.40;;;;;;5017382;28;20030;-83
2022/12/10 01:12:17;;;;;;;33.25;17.27;;;0.60;13.70;;;;;;5015601;28;20038;-87
2022/12/10 01:14:44;;;;;;;28.58;14.95;;;0.60;13.60;;;;;;5015403;28;20026;-88
2022/12/10 01:17:10;;;;;;;33.08;17.05;;;0.60;14.00;;;;;;4997107;28;20034;-88
2022/12/10 01:19:37;;;;;;;32.25;14.65;;;0.60;13.90;;;;;;5015803;28;20034;-86
2022/12/10 01:22:04;;;;;;;32.80;17.40;;;0.60;13.80;;;;;;5013810;28;20359;-89
2022/12/10 01:24:30;;;;;;;29.40;16.13;;;0.60;14.20;;;;;;5013780;28;20054;-87
2022/12/10 01:26:57;;;;;;;31.73;17.58;;;0.60;14.70;;;;;;5005444;28;20042;-85
2022/12/10 01:29:24;;;;;;;31.25;16.30;;;0.60;15.10;;;;;;4997866;28;20515;-87
2022/12/10 01:31:52;;;;;;;28.13;15.20;;;0.60;14.80;;;;;;4996084;28;20049;-84
2022/12/10 01:34:18;;;;;;;34.03;17.15;;;0.60;14.60;;;;;;5014380;28;20034;-87
2022/12/10 01:36:48;;;;;;;33.20;17.63;;;0.60;14.40;;;;;;5014861;28;20049;-89
2022/12/10 01:39:16;;;;;;;31.48;16.73;;;0.60;14.50;;;;;;5014420;28;20022;-89
2022/12/10 01:41:46;;;;;;;33.60;16.38;;;0.60;14.50;;;;;;5014144;28;20050;-85
2022/12/10 01:44:12;;;;;;;34.05;17.05;;;0.50;14.90;;;;;;5014438;28;20036;-88
2022/12/10 01:46:41;;;;;;;30.20;14.90;;;0.50;14.90;;;;;;5016054;28;20463;-93
2022/12/10 01:49:14;;;;;;;34.15;16.58;;;0.50;15.50;;;;;;4998019;28;20042;-89
2022/12/10 01:51:43;;;;;;;29.10;15.80;;;0.50;15.80;;;;;;4997520;28;20105;-89
2022/12/10 01:54:17;;;;;;;39.17;17.45;;;0.60;15.90;;;;;;4996093;28;20045;-91
2022/12/10 01:56:46;;;;;;;35.08;18.35;;;0.50;16.10;;;;;;5014747;28;20034;-89
2022/12/10 01:59:13;;;;;;;28.67;17.00;;;0.50;16.00;;;;;;4997015;28;20044;-90
2022/12/10 02:01:56;;;;;;;29.70;16.05;;;0.50;15.70;;;;;;5014651;28;20050;-91
2022/12/10 02:04:51;;;;;;;31.92;18.27;;;0.50;15.80;;;;;;4997004;28;20061;-88
2022/12/10 02:07:42;;;;;;;29.83;16.70;;;0.50;16.00;;;;;;5013906;28;20042;-91
2022/12/10 02:10:34;;;;;;;37.53;17.60;;;0.50;16.90;;;;;;5013817;28;20041;-90
2022/12/10 02:13:23;;;;;;;31.17;16.48;;;0.50;15.80;;;;;;4994110;28;20499;-87
2022/12/10 02:15:53;;;;;;;32.08;16.00;;;0.50;14.90;;;;;;5007918;28;20030;-86
2022/12/10 02:18:41;;;;;;;29.03;14.10;;;0.50;15.20;;;;;;5008859;28;20046;-87
2022/12/10 02:21:23;;;;;;;33.70;17.10;;;0.50;14.80;;;;;;4977614;28;20057;-89
2022/12/10 02:23:57;;;;;;;31.02;16.02;;;0.50;15.50;;;;;;4996063;28;20050;-88
2022/12/10 02:27:00;;;;;;;31.27;16.55;;;0.50;15.40;;;;;;4996934;28;20046;-86
2022/12/10 02:29:28;;;;;;;34.03;15.00;;;0.50;15.80;;;;;;4996653;28;20482;-87
2022/12/10 02:32:03;;;;;;;32.47;15.43;;;0.60;15.70;;;;;;5012372;28;20042;-83
2022/12/10 02:34:54;;;;;;;32.38;15.88;;;0.50;15.10;;;;;;4995794;28;20038;-90
2022/12/10 02:37:26;;;;;;;31.27;15.82;;;0.50;15.40;;;;;;4995494;28;20041;-85
2022/12/10 02:40:00;;;;;;;35.55;16.67;;;0.50;15.40;;;;;;4980011;28;20037;-84
2022/12/10 02:42:31;;;;;;;35.28;16.95;;;0.50;15.60;;;;;;4994644;28;20399;-87
2022/12/10 02:44:58;;;;;;;36.25;16.77;;;0.50;15.80;;;;;;4988108;28;20042;-83
2022/12/10 02:47:25;;;;;;;31.40;16.70;;;0.50;16.80;;;;;;4995349;28;20038;-87
2022/12/10 02:49:56;;;;;;;37.17;18.30;;;0.50;17.30;;;;;;4995362;28;20052;-88
2022/12/10 02:52:24;;;;;;;29.88;15.52;;;0.50;17.40;;;;;;4994179;28;20046;-90
2022/12/10 02:54:53;;;;;;;33.55;17.42;;;0.40;17.60;;;;;;4995850;28;20045;-90
2022/12/10 02:58:06;;;;;;;31.33;16.73;;;0.40;17.50;;;;;;4995775;28;20042;-87
2022/12/10 03:00:46;;;;;;;35.20;17.23;;;0.40;17.10;;;;;;4996544;28;20046;-89
2022/12/10 03:03:13;;;;;;;30.63;16.63;;;0.40;17.30;;;;;;4973870;28;20050;-87
2022/12/10 03:05:46;;;;;;;34.67;16.95;;;0.40;17.30;;;;;;4996701;28;20065;-86
2022/12/10 03:08:32;;;;;;;32.33;17.02;;;0.40;17.20;;;;;;5031766;28;20100;-85
2022/12/10 03:11:13;;;;;;;34.90;16.48;;;0.40;17.50;;;;;;5015135;28;20033;-82
2022/12/10 03:13:47;;;;;;;34.95;17.90;;;0.40;17.50;;;;;;5012221;28;20038;-88
2022/12/10 03:16:14;;;;;;;32.78;16.25;;;0.40;17.70;;;;;;5012560;28;20042;-88
2022/12/10 03:18:43;;;;;;;32.33;16.45;;;0.40;17.10;;;;;;5012567;28;20034;-88
2022/12/10 03:21:10;;;;;;;33.83;15.98;;;0.40;17.00;;;;;;5011713;28;20038;-87
2022/12/10 03:23:40;;;;;;;34.28;16.48;;;0.40;16.30;;;;;;5012139;28;20033;-89
2022/12/10 03:26:08;;;;;;;36.42;16.90;;;0.40;16.10;;;;;;5012356;28;20391;-89
2022/12/10 03:28:40;;;;;;;31.35;16.42;;;0.40;16.10;;;;;;5012888;28;20030;-87
2022/12/10 03:31:09;;;;;;;31.30;16.25;;;0.40;15.90;;;;;;5012557;28;20038;-88
2022/12/10 03:33:36;;;;;;;36.70;17.90;;;0.40;15.00;;;;;;5012890;28;20045;-86
2022/12/10 03:36:04;;;;;;;37.72;17.58;;;0.30;15.00;;;;;;5012342;28;20042;-83
2022/12/10 03:38:30;;;;;;;37.22;19.52;;;0.30;14.90;;;;;;4994303;28;20490;-86
2022/12/10 03:40:56;;;;;;;27.55;15.73;;;0.30;15.40;;;;;;4994448;28;20053;-84
2022/12/10 03:43:23;;;;;;;32.03;16.73;;;0.30;15.60;;;;;;5012042;28;20049;-83
2022/12/10 03:45:50;;;;;;;31.80;15.55;;;0.30;15.30;;;;;;5013929;28;20029;-83
2022/12/10 03:48:16;;;;;;;34.10;16.83;;;0.30;15.60;;;;;;5016615;28;20030;-85
2022/12/10 03:50:42;;;;;;;32.92;16.77;;;0.30;14.80;;;;;;5013491;28;20042;-81
2022/12/10 03:53:08;;;;;;;30.10;16.63;;;0.30;15.10;;;;;;5028273;28;20038;-84
2022/12/10 03:55:34;;;;;;;36.78;17.98;;;0.30;15.00;;;;;;4996618;28;20364;-85
2022/12/10 03:58:01;;;;;;;30.77;16.50;;;0.30;15.30;;;;;;5014748;28;20037;-85
2022/12/10 04:00:27;;;;;;;35.70;17.33;;;0.30;14.80;;;;;;5000865;28;20046;-81
2022/12/10 04:02:53;;;;;;;31.65;16.92;;;0.30;14.60;;;;;;5020611;28;20050;-85
2022/12/10 04:05:19;;;;;;;32.47;15.50;;;0.30;14.50;;;;;;4983873;28;20051;-83
2022/12/10 04:07:45;;;;;;;31.38;16.90;;;0.30;14.10;;;;;;5020596;28;20037;-86
2022/12/10 04:10:12;;;;;;;33.65;16.27;;;0.20;13.50;;;;;;5020676;28;20030;-82
2022/12/10 04:12:38;;;;;;;30.95;14.95;;;0.30;13.20;;;;;;5000342;28;20042;-85
2022/12/10 04:17:50;;;;;;;35.38;17.48;;;0.20;13.90;;;;;;5015753;28;20026;-86
2022/12/10 04:28:38;;;;;;;36.30;18.48;;;0.20;14.60;;;;;;5013788;28;20038;-86
2022/12/10 04:31:04;;;;;;;29.10;14.70;;;0.20;14.80;;;;;;4993462;28;20042;-82
2022/12/10 04:33:30;;;;;;;40.00;19.20;;;0.20;14.90;;;;;;5012994;28;20038;-84
2022/12/10 04:35:56;;;;;;;30.80;16.10;;;0.20;14.90;;;;;;5013124;28;20036;-84
2022/12/10 04:38:22;;;;;;;33.35;16.75;;;0.20;14.90;;;;;;4996154;28;20034;-85
2022/12/10 04:40:48;;;;;;;34.47;15.73;;;0.20;14.60;;;;;;4999841;28;20037;-86
2022/12/10 04:43:14;;;;;;;33.00;17.65;;;0.20;13.80;;;;;;5015828;28;20030;-83
2022/12/10 04:45:41;;;;;;;33.88;16.48;;;0.20;14.10;;;;;;4999578;28;20038;-80
2022/12/10 04:48:07;;;;;;;33.10;16.38;;;0.20;14.60;;;;;;5016414;28;20041;-83
2022/12/10 04:50:35;;;;;;;31.58;16.90;;;0.20;13.60;;;;;;5023684;28;20030;-83
2022/12/10 04:53:01;;;;;;;31.60;15.52;;;0.20;13.10;;;;;;5026219;28;20041;-82
2022/12/10 04:55:27;;;;;;;45.13;18.77;;;0.20;13.10;;;;;;5019271;28;20367;-85
2022/12/10 04:57:53;;;;;;;34.50;16.30;;;0.20;12.50;;;;;;5018945;28;20131;-85
2022/12/10 05:00:19;;;;;;;36.58;18.23;;;0.20;12.70;;;;;;4998726;28;20030;-86
2022/12/10 05:02:49;;;;;;;34.03;16.23;;;0.20;12.70;;;;;;4999923;28;20054;-85
2022/12/10 05:05:15;;;;;;;33.17;16.48;;;0.20;12.80;;;;;;4997978;28;20046;-84
2022/12/10 05:07:41;;;;;;;31.25;15.77;;;0.20;13.20;;;;;;5000090;28;20046;-83
2022/12/10 05:10:08;;;;;;;31.52;16.17;;;0.20;13.40;;;;;;5020749;28;20033;-87
2022/12/10 05:12:34;;;;;;;33.78;16.67;;;0.20;12.80;;;;;;5015593;28;20029;-83
2022/12/10 05:15:00;;;;;;;33.35;17.40;;;0.20;12.30;;;;;;5014720;28;20049;-81
2022/12/10 05:17:26;;;;;;;26.60;14.68;;;0.20;11.90;;;;;;5014590;28;20034;-86
2022/12/10 05:19:52;;;;;;;33.22;16.30;;;0.10;11.10;;;;;;5015877;28;20041;-81
2022/12/10 05:25:03;;;;;;;30.25;15.75;;;0.10;10.40;;;;;;4997134;28;20106;-82
2022/12/10 05:27:34;;;;;;;36.20;18.45;;;0.10;10.00;;;;;;5016073;28;20231;-88
2022/12/10 05:30:00;;;;;;;28.23;15.68;;;0.10;9.20;;;;;;5015924;28;20049;-86
2022/12/10 05:32:26;;;;;;;35.10;15.48;;;0.20;7.40;;;;;;5014062;28;20024;-86
2022/12/10 05:34:52;;;;;;;29.60;14.38;;;0.10;6.50;;;;;;5015587;28;20041;-84
2022/12/10 05:37:18;;;;;;;28.23;14.95;;;0.10;6.30;;;;;;5016007;28;20037;-88
2022/12/10 05:39:44;;;;;;;32.88;15.35;;;0.10;5.60;;;;;;5015799;28;20029;-86
2022/12/10 05:42:11;;;;;;;30.27;15.00;;;0.10;5.40;;;;;;5029365;28;20093;-85
2022/12/10 05:44:37;;;;;;;32.63;15.90;;;0.10;5.90;;;;;;5024115;28;20052;-86
2022/12/10 05:47:03;;;;;;;31.60;16.05;;;0.10;5.60;;;;;;5016631;28;20041;-80
2022/12/10 05:49:29;;;;;;;25.27;14.02;;;0.10;4.70;;;;;;5015260;28;20034;-87
2022/12/10 05:51:56;;;;;;;32.83;15.30;;;0.10;4.40;;;;;;4997767;28;20041;-86
2022/12/10 05:54:22;;;;;;;28.77;15.68;;;0.10;3.40;;;;;;5015314;28;20037;-85
2022/12/10 05:56:49;;;;;;;29.17;13.63;;;0.10;3.30;;;;;;5000246;28;20472;-86
2022/12/10 05:59:15;;;;;;;30.42;16.20;;;0.10;2.90;;;;;;5015186;28;20391;-84
2022/12/10 06:01:41;;;;;;;28.00;14.85;;;0.10;1.80;;;;;;5014199;28;20034;-85
2022/12/10 06:04:09;;;;;;;29.25;14.30;;;0.10;2.10;;;;;;5014777;28;20050;-87
2022/12/10 06:06:37;;;;;;;30.77;14.80;;;0.10;1.70;;;;;;5016269;28;20014;-88
2022/12/10 06:09:05;;;;;;;28.98;14.32;;;0.10;2.00;;;;;;5015452;28;20038;-81
2022/12/10 06:11:32;;;;;;;33.53;14.02;;;0.10;2.10;;;;;;4995553;28;20038;-88
2022/12/10 06:13:59;;;;;;;27.40;14.73;;;0.00;2.60;;;;;;4987890;28;20038;-87
2022/12/10 06:16:27;;;;;;;31.70;16.95;;;0.10;2.40;;;;;;5006155;28;20037;-85
2022/12/10 06:18:53;;;;;;;34.90;15.52;;;0.00;3.00;;;;;;5014197;28;20455;-83
2022/12/10 06:21:20;;;;;;;28.95;14.73;;;0.00;3.60;;;;;;4995470;28;20042;-88
2022/12/10 06:23:47;;;;;;;33.88;16.23;;;0.00;3.20;;;;;;5014463;28;20478;-85
2022/12/10 06:26:20;;;;;;;35.35;16.52;;;0.00;4.20;;;;;;4995548;28;20037;-87
2022/12/10 06:28:47;;;;;;;27.85;14.65;;;0.00;3.90;;;;;;5014379;28;20030;-88
2022/12/10 06:31:14;;;;;;;29.73;15.20;;;0.00;3.20;;;;;;4994793;28;20037;-85
2022/12/10 06:33:41;;;;;;;27.27;14.10;;;0.00;3.60;;;;;;5013898;28;20093;-81
2022/12/10 06:36:10;;;;;;;28.83;14.73;;;0.00;4.20;;;;;;5016886;28;20033;-85
2022/12/10 06:38:37;;;;;;;36.83;15.18;;;0.00;3.00;;;;;;5013630;28;20038;-86
2022/12/10 06:41:08;;;;;;;33.75;15.10;;;0.00;3.30;;;;;;5014933;28;20041;-82
2022/12/10 06:43:34;;;;;;;;;;;0.00;2.80;;;;;;5014411;28;20041;-86
2022/12/10 06:46:09;;;;;;;34.33;16.08;;;0.00;1.50;;;;;;5012769;28;19916;-86
2022/12/10 06:48:35;;;;;;;31.02;14.30;;;0.00;1.00;;;;;;4978920;28;20041;-87
2022/12/10 06:51:03;;;;;;;33.75;16.67;;;0.00;1.00;;;;;;5012813;28;20050;-87
2022/12/10 06:53:30;;;;;;;28.70;14.25;;;0.00;1.00;;;;;;4994817;28;20046;-84
2022/12/10 06:56:01;;;;;;;25.67;14.07;;;0.00;1.00;;;;;;5011838;28;20040;-84
2022/12/10 06:58:31;;;;;;;27.73;14.15;;;0.00;1.00;;;;;;4994582;28;20475;-85
2022/12/10 07:01:15;;;;;;;31.60;14.70;;;0.00;1.00;;;;;;4995741;28;20041;-86
2022/12/10 07:03:42;;;;;;;29.88;15.30;;;0.00;1.00;;;;;;5015440;28;20046;-86
2022/12/10 07:06:10;;;;;;;27.65;13.75;;;0.00;1.00;;;;;;5011978;28;20033;-86
2022/12/10 07:08:37;;;;;;;24.83;12.98;;;0.00;1.00;;;;;;4995535;28;20037;-87
2022/12/10 07:11:08;;;;;;;24.77;12.93;;;0.00;1.00;;;;;;5014748;28;20041;-82
2022/12/10 07:13:35;;;;;;;29.85;15.90;;;0.00;1.00;;;;;;4994995;28;20064;-86
2022/12/10 07:16:01;;;;;;;27.92;14.00;;;0.00;1.00;;;;;;5011315;28;20053;-88
2022/12/10 07:18:28;;;;;;;26.10;13.95;;;0.00;1.00;;;;;;5013142;28;20037;-90
2022/12/10 07:20:54;;;;;;;24.80;12.85;;;0.00;1.00;;;;;;4980433;28;20514;-88
2022/12/10 07:23:21;;;;;;;28.17;14.02;;;0.00;1.00;;;;;;5012365;28;20061;-87
2022/12/10 07:25:47;;;;;;;29.30;14.85;;;0.00;1.00;;;;;;5018891;28;20033;-86
2022/12/10 07:28:13;;;;;;;26.52;12.23;;;0.00;1.00;;;;;;5017018;28;20040;-88
2022/12/10 07:30:40;;;;;;;27.45;12.80;;;0.00;1.00;;;;;;5013786;28;20486;-88
2022/12/10 07:33:06;;;;;;;25.67;12.57;;;0.00;1.00;;;;;;5013167;28;20045;-84
2022/12/10 07:35:32;;;;;;;25.63;12.93;;;0.00;1.00;;;;;;5011997;28;20044;-87
2022/12/10 07:37:58;;;;;;;21.85;11.63;;;0.00;1.00;;;;;;5012592;28;20030;-86
2022/12/10 07:40:24;;;;;;;25.00;12.05;;;0.00;1.00;;;;;;4994906;28;20042;-88
2022/12/10 07:42:50;;;;;;;22.67;11.82;;;0.00;1.00;;;;;;4996338;28;20061;-90
2022/12/10 07:45:16;;;;;;;24.25;10.98;;;0.00;1.00;;;;;;5010729;28;20034;-86
2022/12/10 07:47:42;;;;;;;19.30;11.00;;;0.10;1.00;;;;;;4998003;28;20049;-86
2022/12/10 07:50:09;;;;;;;19.92;11.75;;;0.00;1.00;;;;;;5014624;28;20037;-82
2022/12/10 07:52:35;;;;;;;22.73;11.68;;;0.00;1.00;;;;;;5020315;28;20026;-85
2022/12/10 07:55:01;;;;;;;20.15;10.98;;;0.10;1.00;;;;;;5030790;28;20038;-84
2022/12/10 07:57:30;;;;;;;20.45;12.30;;;0.10;1.00;;;;;;5006001;28;20459;-85
2022/12/10 07:59:56;;;;;;;18.98;11.00;;;0.10;1.00;;;;;;5013353;28;20477;-85
2022/12/10 08:02:22;;;;;;;21.08;11.32;;;0.10;1.00;;;;;;5007582;28;20058;-87
2022/12/10 08:04:48;;;;;;;24.27;12.75;;;0.10;1.00;;;;;;4992429;28;20037;-84
2022/12/10 08:07:14;;;;;;;22.48;13.45;;;0.10;1.00;;;;;;5009008;28;20033;-87
2022/12/10 08:09:40;;;;;;;20.10;11.65;;;0.10;1.00;;;;;;4990949;28;20029;-85
2022/12/10 08:12:06;;;;;;;19.88;12.00;;;0.20;1.00;;;;;;4989814;28;20348;-83
2022/12/10 08:14:33;;;;;;;19.83;11.57;;;0.20;1.00;;;;;;5014149;28;20030;-84
2022/12/10 08:16:59;;;;;;;20.98;11.23;;;0.20;1.00;;;;;;5016616;28;20360;-84
2022/12/10 08:19:25;;;;;;;18.65;10.38;;;0.20;1.00;;;;;;5016422;28;20026;-77
2022/12/10 08:21:51;;;;;;;21.65;11.40;;;0.20;1.00;;;;;;5018853;28;20033;-89
2022/12/10 08:24:17;;;;;;;19.92;10.40;;;0.30;1.00;;;;;;5016483;28;20037;-87
2022/12/10 08:26:43;;;;;;;17.38;10.55;;;0.30;1.00;;;;;;5014913;28;20034;-87
2022/12/10 08:29:10;;;;;;;21.50;10.75;;;0.30;1.00;;;;;;4998134;28;20049;-81
2022/12/10 08:31:36;;;;;;;16.90;9.73;;;0.30;1.00;;;;;;5016335;28;20041;-87
2022/12/10 08:34:02;;;;;;;18.40;10.90;;;0.30;1.00;;;;;;4999282;28;20037;-89
2022/12/10 08:36:30;;;;;;;18.60;10.20;;;0.40;1.00;;;;;;4998023;28;20049;-90
2022/12/10 08:38:56;;;;;;;18.27;10.73;;;0.40;1.00;;;;;;4983412;28;20057;-83
2022/12/10 08:41:22;;;;;;;18.15;11.35;;;0.40;1.00;;;;;;5016176;28;20045;-87
2022/12/10 08:43:50;;;;;;;18.20;10.35;;;0.50;1.00;;;;;;5022588;28;20029;-86
2022/12/10 08:46:16;;;;;;;18.60;10.43;;;0.50;1.00;;;;;;5015404;28;20129;-85
2022/12/10 08:48:43;;;;;;;20.10;9.95;;;0.50;1.00;;;;;;5028133;28;20038;-86
2022/12/10 08:51:13;;;;;;;16.98;10.43;;;0.50;1.00;;;;;;5019570;28;20026;-81
2022/12/10 08:53:39;;;;;;;18.08;9.93;;;0.50;1.00;;;;;;5001226;28;20038;-88
2022/12/10 08:56:06;;;;;;;18.15;10.02;;;0.50;1.00;;;;;;5017953;28;20041;-85
2022/12/10 08:58:32;;;;;;;16.60;9.25;;;0.50;1.00;;;;;;5017146;28;20026;-84
2022/12/10 09:00:59;;;;;;;18.73;10.93;;;0.50;1.00;;;;;;5022935;28;20029;-88
2022/12/10 09:03:25;;;;;;;17.52;10.00;;;0.60;1.00;;;;;;5036644;28;20049;-83
2022/12/10 09:05:51;;;;;;;18.83;10.77;;;0.60;1.00;;;;;;5035614;28;20042;-87
2022/12/10 09:08:17;;;;;;;18.75;10.70;;;0.60;1.00;;;;;;5036669;28;20053;-83
2022/12/10 09:10:43;;;;;;;19.10;10.27;;;0.60;1.00;;;;;;5028821;28;20034;-84
2022/12/10 09:13:10;;;;;;;19.60;11.65;;;0.60;1.00;;;;;;5018985;28;20088;-82
2022/12/10 09:15:36;;;;;;;17.70;9.48;;;0.70;1.00;;;;;;5014566;28;20387;-86
2022/12/10 09:18:03;;;;;;;23.83;11.65;;;0.70;1.00;;;;;;4997986;28;20455;-87
2022/12/10 09:20:29;;;;;;;22.67;10.20;;;0.70;1.00;;;;;;4997379;28;20049;-86
2022/12/10 09:22:55;;;;;;;18.38;10.00;;;0.80;1.00;;;;;;5016288;28;20033;-86
2022/12/10 09:25:21;;;;;;;16.30;9.88;;;0.90;1.00;;;;;;5012498;28;20034;-80
2022/12/10 09:27:48;;;;;;;17.73;10.98;;;0.90;1.00;;;;;;5014464;28;20030;-84
2022/12/10 09:30:17;;;;;;;16.75;9.18;;;1.00;1.00;;;;;;5013780;28;20030;-82
2022/12/10 09:32:44;;;;;;;16.45;10.20;;;1.00;1.00;;;;;;5011863;28;20038;-84
2022/12/10 09:35:10;;;;;;;20.02;10.30;;;1.10;1.00;;;;;;5009515;28;20057;-80
2022/12/10 09:37:37;;;;;;;21.40;12.23;;;1.20;1.00;;;;;;5014561;28;20030;-87
2022/12/10 09:40:03;;;;;;;19.25;10.10;;;1.30;1.00;;;;;;5015334;28;20041;-85
2022/12/10 09:42:47;;;;;;;16.42;9.98;;;1.40;1.00;;;;;;5013965;28;20037;-80
2022/12/10 09:45:38;;;;;;;20.60;10.70;;;1.40;1.00;;;;;;5011685;28;20410;-85
2022/12/10 09:48:13;;;;;;;18.83;10.10;;;1.40;1.00;;;;;;5011100;28;20034;-82
2022/12/10 09:50:53;;;;;;;17.58;9.68;;;1.50;1.00;;;;;;5012254;28;20048;-86
2022/12/10 09:53:21;;;;;;;17.92;9.70;;;1.40;1.00;;;;;;4996416;28;20046;-78
2022/12/10 09:55:48;;;;;;;18.02;10.40;;;1.40;1.00;;;;;;5012779;28;20399;-81
2022/12/10 09:58:21;;;;;;;18.45;10.38;;;1.30;1.00;;;;;;5012855;28;20038;-79
2022/12/10 10:00:53;;;;;;;18.83;11.00;;;1.30;1.00;;;;;;4997253;28;20064;-78
2022/12/10 10:03:20;;;;;;;16.77;8.68;;;1.50;1.00;;;;;;5012952;28;20050;-81
2022/12/10 10:05:51;;;;;;;18.70;10.23;;;1.60;1.00;;;;;;5012703;28;20038;-79
2022/12/10 10:08:42;;;;;;;15.70;9.30;;;1.60;1.00;;;;;;5013425;28;20471;-80
2022/12/10 10:11:17;;;;;;;16.58;8.95;;;1.60;1.00;;;;;;5013989;28;20029;-86
2022/12/10 10:13:45;;;;;;;16.08;9.68;;;1.70;1.00;;;;;;5013569;28;20049;-79
2022/12/10 10:16:25;;;;;;;17.23;10.27;;;1.60;1.00;;;;;;5012389;28;20037;-78
2022/12/10 10:19:05;;;;;;;16.85;9.63;;;1.70;1.00;;;;;;5013848;28;20033;-78
2022/12/10 10:21:45;;;;;;;19.67;11.10;;;1.60;1.00;;;;;;5013144;28;20049;-78
2022/12/10 10:24:18;;;;;;;16.88;9.98;;;1.60;1.00;;;;;;5013038;28;20038;-79
2022/12/10 10:26:45;;;;;;;15.15;9.15;;;1.80;1.00;;;;;;5011583;28;20034;-79
2022/12/10 10:29:16;;;;;;;17.35;10.70;;;1.90;1.00;;;;;;5013129;28;20394;-79
2022/12/10 10:31:42;;;;;;;14.18;9.20;;;1.90;1.00;;;;;;5008060;28;20041;-82
2022/12/10 10:34:21;;;;;;;17.73;9.75;;;2.00;1.00;;;;;;5013134;28;20034;-79
2022/12/10 10:36:55;;;;;;;17.00;9.82;;;2.10;1.00;;;;;;5010990;28;20418;-82
2022/12/10 10:39:30;;;;;;;15.60;8.38;;;2.00;1.00;;;;;;5011934;28;20038;-85
2022/12/10 10:41:58;;;;;;;16.75;8.73;;;1.90;1.00;;;;;;5013843;28;20030;-81
2022/12/10 10:44:27;;;;;;;15.85;8.82;;;1.70;1.00;;;;;;5012448;28;20033;-79
2022/12/10 10:46:55;;;;;;;14.68;9.10;;;1.80;1.00;;;;;;5007556;28;20045;-81
2022/12/10 10:49:28;;;;;;;15.20;8.73;;;1.90;1.00;;;;;;4995558;28;20053;-81
2022/12/10 10:52:00;;;;;;;13.27;8.50;;;1.90;1.00;;;;;;5015730;28;20044;-80
2022/12/10 10:54:37;;;;;;;15.68;9.18;;;2.00;1.00;;;;;;5009414;28;20041;-80
2022/12/10 10:57:21;;;;;;;16.08;9.20;;;2.00;1.00;;;;;;5012612;28;20045;-81
2022/12/10 10:59:48;;;;;;;17.52;8.75;;;1.90;1.00;;;;;;5012901;28;20054;-80
2022/12/10 11:02:24;;;;;;;17.85;10.15;;;2.00;1.00;;;;;;5012111;28;20046;-83
2022/12/10 11:04:53;;;;;;;13.63;8.05;;;2.00;1.00;;;;;;5008920;28;20463;-80
2022/12/10 11:07:25;;;;;;;16.25;8.90;;;2.00;1.00;;;;;;5011576;28;20045;-84
2022/12/10 11:09:53;;;;;;;13.35;8.73;;;2.00;1.00;;;;;;4997566;28;20030;-84
2022/12/10 11:12:33;;;;;;;14.20;8.70;;;2.10;1.00;;;;;;5012073;28;20404;-82
2022/12/10 11:15:00;;;;;;;14.93;9.13;;;2.20;1.00;;;;;;5012811;28;20038;-82
2022/12/10 11:17:27;;;;;;;14.68;8.43;;;2.40;1.00;;;;;;5011227;28;20041;-81
2022/12/10 11:20:03;;;;;;;14.60;8.48;;;2.50;1.00;;;;;;5012575;28;20037;-79
2022/12/10 11:22:31;;;;;;;15.60;8.10;;;2.40;1.00;;;;;;5012282;28;20030;-81
2022/12/10 11:24:59;;;;;;;14.32;8.32;;;2.20;1.00;;;;;;5012659;28;20038;-81
2022/12/10 11:27:39;;;;;;;16.27;8.73;;;2.20;1.00;;;;;;5011129;28;20022;-80
2022/12/10 11:30:22;;;;;;;18.75;12.70;;;2.20;1.00;;;;;;5008924;28;20029;-80
2022/12/10 11:33:01;;;;;;;15.32;9.20;;;2.20;1.00;;;;;;5009051;28;20042;-80
2022/12/10 11:35:54;;;;;;;13.32;8.13;;;2.20;1.00;;;;;;5012091;28;20042;-78
2022/12/10 11:38:44;;;;;;;12.05;6.50;;;2.20;1.00;;;;;;5008984;28;20029;-80
2022/12/10 11:41:41;;;;;;;11.50;7.30;;;2.20;1.00;;;;;;4984149;28;20045;-80
2022/12/10 11:44:16;;;;;;;13.82;7.82;;;2.20;1.00;;;;;;5011316;28;20048;-79
2022/12/10 11:46:45;;;;;;;15.23;9.00;;;2.20;1.00;;;;;;5011105;28;20060;-78
2022/12/10 11:49:39;;;;;;;13.25;7.95;;;2.10;1.00;;;;;;5014073;28;20037;-82
2022/12/10 11:52:24;;;;;;;12.70;8.20;;;2.10;1.00;;;;;;4981250;28;20042;-82
2022/12/10 11:55:02;;;;;;;17.08;7.85;;;2.10;1.00;;;;;;5010734;28;20038;-80
2022/12/10 11:57:48;;;;;;;12.40;7.28;;;2.30;1.00;;;;;;5022127;28;20137;-78
2022/12/10 12:00:27;;;;;;;12.07;7.72;;;2.30;1.00;;;;;;4983489;28;20042;-85
2022/12/10 12:02:59;;;;;;;10.57;7.13;;;2.40;1.00;;;;;;5019884;28;20067;-86
2022/12/10 12:05:51;;;;;;;12.82;7.47;;;2.50;1.00;;;;;;4998159;28;20037;-82
2022/12/10 12:08:35;;;;;;;15.45;7.97;;;2.50;1.00;;;;;;4991473;28;20045;-82
2022/12/10 12:11:25;;;;;;;10.90;6.28;;;2.50;1.00;;;;;;4994631;28;20042;-82
2022/12/10 12:13:57;;;;;;;10.13;6.20;;;2.50;1.00;;;;;;4968834;28;20045;-85
2022/12/10 12:16:31;;;;;;;14.25;8.73;;;2.70;1.00;;;;;;5010848;28;20603;-87
2022/12/10 12:19:02;;;;;;;11.88;7.15;;;2.80;1.00;;;;;;4992216;28;20042;-86
2022/12/10 12:21:29;;;;;;;14.60;7.78;;;2.90;1.00;;;;;;5011652;28;20033;-87
2022/12/10 12:24:08;;;;;;;12.57;8.13;;;3.20;1.00;;;;;;5011909;28;20041;-88
2022/12/10 12:26:47;;;;;;;13.00;7.60;;;3.10;1.00;;;;;;5010038;28;20030;-86
2022/12/10 12:29:27;;;;;;;11.18;7.53;;;2.90;1.00;;;;;;5007812;28;20048;-83
2022/12/10 12:32:01;;;;;;;13.18;8.55;;;3.10;1.00;;;;;;5013930;28;20037;-85
2022/12/10 12:34:41;;;;;;;12.27;7.20;;;3.20;1.00;;;;;;5020282;28;20029;-87
2022/12/10 12:37:14;;;;;;;14.93;8.02;;;3.00;1.00;;;;;;5005106;28;20030;-86
2022/12/10 12:39:50;;;;;;;11.30;7.28;;;2.70;1.00;;;;;;5013022;28;20372;-87
2022/12/10 12:42:29;;;;;;;14.52;8.25;;;2.70;1.00;;;;;;5014414;28;20038;-85
2022/12/10 12:45:30;;;;;;;11.60;7.57;;;2.40;1.00;;;;;;5013807;28;20331;-87
2022/12/10 12:48:23;;;;;;;13.50;7.95;;;2.40;1.00;;;;;;5014130;28;20061;-84
2022/12/10 12:51:02;;;;;;;11.75;7.97;;;2.50;1.00;;;;;;4976928;28;20038;-85
2022/12/10 12:53:28;;;;;;;14.55;7.80;;;2.50;1.00;;;;;;5011777;28;20101;-86
2022/12/10 12:56:22;;;;;;;13.93;8.43;;;2.40;1.00;;;;;;5013754;28;20026;-87
2022/12/10 12:58:59;;;;;;;14.73;7.47;;;2.30;1.00;;;;;;5001938;28;20049;-84
2022/12/10 13:01:34;;;;;;;10.82;7.55;;;2.40;1.00;;;;;;5022251;28;20463;-84
2022/12/10 13:04:02;;;;;;;14.95;7.97;;;2.30;1.00;;;;;;5000571;28;20057;-85
2022/12/10 13:06:37;;;;;;;13.60;7.78;;;2.30;1.00;;;;;;4998144;28;20053;-87
2022/12/10 13:09:12;;;;;;;16.35;9.13;;;2.20;1.00;;;;;;5017857;28;20037;-85
2022/12/10 13:11:40;;;;;;;14.93;8.30;;;2.40;1.00;;;;;;4997478;28;20432;-87
2022/12/10 13:14:09;;;;;;;13.00;7.60;;;2.40;1.00;;;;;;5017029;28;20395;-85
2022/12/10 13:16:40;;;;;;;11.55;7.72;;;2.40;1.00;;;;;;5016747;28;20471;-87